Historique des mesures à Cassis (13260), France
Quotidien Résumé Juin 25, 2017 Unités:  Métrique    US   Métrique/US
« Précédent (Jour)
Suivant (Jour) »
Quotidien Hebdomadaire Mensuel Annuel Période au choix
  Maximum: Minimum: Moyenne:
Température: TemperatureC °C 23.6 °C 25.5 °C
Point de rosée: DewpointC °C 16.2 °C 17.4 °C
Humidité: Humidity % 44 % 59 %
Vitesse du vent: 0 km/h 0 km/h 19.3 km/h
Rafales: 0 km/h - -
Vent:- - WSW
Pression: PressurehPa hPa 1007.7 hPa -
Précipitations: 0.0 mm    
Historical Graphs
 
 
Mesures pour : Juin 25, 2017
Heure Temperature Point de rosée Pression Vent Vitesse du vent Rafales Humidité Pluie (par heure) Conditions
TemperatureC °C DewpointC °C PressurehPa hPa Calm     Humidity % HourlyPrecipMM mm SoftwareType W/m2
00:11 25.4 °C 19.6 °C 1011.4 hPa Calm     70 % 0.0 mm open2300-1.11 W/m2
01:10 25.0 °C 19.8 °C 1010.7 hPa Calm     73 % 0.0 mm open2300-1.11 W/m2
02:10 24.9 °C 20.2 °C 1010.7 hPa Calm     75 % 0.0 mm open2300-1.11 W/m2
03:10 24.3 °C 19.8 °C 1010.4 hPa Calm   2.9 km/h 76 % 0.0 mm open2300-1.11 W/m2
04:10 23.9 °C 19.4 °C 1009.7 hPa Calm     76 % 0.0 mm open2300-1.11 W/m2
05:10 23.6 °C 19.6 °C 1010.0 hPa Calm   6.4 km/h 78 % 0.0 mm open2300-1.11 W/m2
06:10 23.8 °C 19.8 °C 1010.4 hPa North 10.3 km/h 25.4 km/h 78 % 0.0 mm open2300-1.11 W/m2
07:10 23.9 °C 18.6 °C 1009.4 hPa West 2.3 km/h 10.3 km/h 72 % 0.0 mm open2300-1.11 W/m2
08:11 23.9 °C 18.8 °C 1009.7 hPa SSE 2.9 km/h 6.4 km/h 73 % 0.0 mm open2300-1.11 W/m2
09:10 24.6 °C 18.3 °C 1010.0 hPa NW 48.6 km/h 48.6 km/h 68 % 0.0 mm open2300-1.11 W/m2
10:11 27.2 °C 19.8 °C 1010.0 hPa SSW 11.6 km/h 11.6 km/h 64 % 0.0 mm open2300-1.11 W/m2
11:10 29.8 °C 18.3 °C 1009.7 hPa North 29.5 km/h 32.3 km/h 50 % 0.0 mm open2300-1.11 W/m2
12:10 30.6 °C 18.0 °C 1010.0 hPa WNW 28.5 km/h 34.1 km/h 47 % 0.0 mm open2300-1.11 W/m2
13:10 30.1 °C 16.5 °C 1009.7 hPa NNE 15 km/h 19.6 km/h 44 % 0.0 mm open2300-1.11 W/m2
14:10 30.4 °C 17.1 °C 1010.0 hPa NNW 29.5 km/h 46.8 km/h 45 % 0.0 mm open2300-1.11 W/m2
15:10 28.7 °C 17.6 °C 1009.7 hPa NW 36.5 km/h 48.1 km/h 51 % 0.0 mm open2300-1.11 W/m2
16:10 28.8 °C 17.1 °C 1009.4 hPa NW 38.3 km/h 56.2 km/h 49 % 0.0 mm open2300-1.11 W/m2
17:10 29.3 °C 17.2 °C 1008.4 hPa NW 47.3 km/h 47.3 km/h 48 % 0.0 mm open2300-1.11 W/m2
18:11 28.4 °C 17.0 °C 1008.0 hPa WNW 45.4 km/h 59.1 km/h 50 % 0.0 mm open2300-1.11 W/m2
19:10 28.1 °C 16.7 °C 1007.7 hPa WNW 33.6 km/h 51.5 km/h 50 % 0.0 mm open2300-1.11 W/m2
20:10 26.9 °C 16.5 °C 1008.0 hPa NW 37.5 km/h 66.6 km/h 53 % 0.0 mm open2300-1.11 W/m2
21:11 25.8 °C 16.9 °C 1008.4 hPa NNW 20.9 km/h 25.4 km/h 58 % 0.0 mm open2300-1.11 W/m2
22:10 25.6 °C 16.2 °C 1008.4 hPa NW 18.7 km/h 26.7 km/h 56 % 0.0 mm open2300-1.11 W/m2
23:11 24.8 °C 16.8 °C 1009.0 hPa WNW 24.8 km/h 29 km/h 61 % 0.0 mm open2300-1.11 W/m2
Observations météo à CASSIS
WU-History script by Weather Underground - 1 mb